PWSweather.com
Personal Weather Stations
Station Observations
COONRAPIDS
Minneapolis, MN 55433

Minneapolis, MN 55433

Lat: 45.187721, Lon: -93.36828

Elevation: 898

Station Type: Davis Vantage Pro 2

Latest ConditionsUpdated 8:50:01 AM CST Wednesday, Nov 26, 2014
Currently Today's Max Today's Min Today's Average
Temperature 23.4°F-4.8°C 25.1°F-3.8°C 23.4°F-4.8°C 24.0°F-4.4°C
Dew Point 19.0°F-7.2°C 19.0°F-7.2°C 15.9°F-8.9°C 16.8°F-8.4°C
Winds Calm Calm 1.7 mph NE2.7 kmh NE - 0.3 mph 0.5 kmh
Wind Gusts -- 5.0 mph8.0 kmh - -
Humidity 83% 83% 70% 74%
Pressure 30.18 in1022.0 mb 30.18 in1022.0 mb 30.06 in1017.9 mb -
Hour Temp Dew Point Humidity Winds Wind Gusts Pressure Precip Precip Rate Daily Precip Total
08:50 AM 23.4°F-4.8°C 19.0°F-7.2°C 83% Calm Calm -- 30.18 in1022.0 mb 0.00 in0.0 mm 0.00 in/hr0.0 mm/hr 0.00 in0.0 mm
08:40 AM 23.4°F-4.8°C 18.7°F-7.4°C 82% 0.1 mph NNE0.2 kmh NNE -- 30.18 in1022.0 mb 0.00 in0.0 mm 0.00 in/hr0.0 mm/hr 0.00 in0.0 mm
08:30 AM 23.4°F-4.8°C 18.1°F-7.7°C 80% Calm Calm -- 30.17 in1021.7 mb 0.00 in0.0 mm 0.00 in/hr0.0 mm/hr 0.00 in0.0 mm
08:20 AM 23.4°F-4.8°C 18.1°F-7.7°C 80% Calm Calm -- 30.17 in1021.7 mb 0.00 in0.0 mm 0.00 in/hr0.0 mm/hr 0.00 in0.0 mm
08:10 AM 23.4°F-4.8°C 17.8°F-7.9°C 79% Calm Calm -- 30.16 in1021.3 mb 0.00 in0.0 mm 0.00 in/hr0.0 mm/hr 0.00 in0.0 mm
08:00 AM 23.4°F-4.8°C 17.8°F-7.9°C 79% 0.3 mph NNE0.5 kmh NNE 3.0 mph4.8 kmh 30.16 in1021.3 mb 0.00 in0.0 mm 0.00 in/hr0.0 mm/hr 0.00 in0.0 mm
07:50 AM 23.4°F-4.8°C 17.6°F-8.0°C 78% 0.2 mph NE0.3 kmh NE -- 30.15 in1021.0 mb 0.00 in0.0 mm 0.00 in/hr0.0 mm/hr 0.00 in0.0 mm
07:40 AM 23.4°F-4.8°C 17.6°F-8.0°C 78% 1.6 mph NE2.6 kmh NE 4.0 mph6.4 kmh 30.15 in1021.0 mb 0.00 in0.0 mm 0.00 in/hr0.0 mm/hr 0.00 in0.0 mm
07:30 AM 23.4°F-4.8°C 17.6°F-8.0°C 78% 1.2 mph E1.9 kmh E 3.0 mph4.8 kmh 30.14 in1020.7 mb 0.00 in0.0 mm 0.00 in/hr0.0 mm/hr 0.00 in0.0 mm
07:20 AM 23.4°F-4.8°C 17.6°F-8.0°C 78% 0.4 mph ENE0.6 kmh ENE -- 30.13 in1020.3 mb 0.00 in0.0 mm 0.00 in/hr0.0 mm/hr 0.00 in0.0 mm
07:10 AM 23.5°F-4.7°C 17.3°F-8.2°C 77% 1.7 mph NE2.7 kmh NE 4.0 mph6.4 kmh 30.13 in1020.3 mb 0.00 in0.0 mm 0.00 in/hr0.0 mm/hr 0.00 in0.0 mm
07:00 AM 23.7°F-4.6°C 17.5°F-8.1°C 77% Calm Calm -- 30.12 in1020.0 mb 0.00 in0.0 mm 0.00 in/hr0.0 mm/hr 0.00 in0.0 mm
06:50 AM 23.9°F-4.5°C 17.1°F-8.3°C 75% 1.0 mph NE1.6 kmh NE 3.0 mph4.8 kmh 30.12 in1020.0 mb 0.00 in0.0 mm 0.00 in/hr0.0 mm/hr 0.00 in0.0 mm
06:40 AM 24.0°F-4.4°C 16.6°F-8.6°C 73% 1.6 mph NNE2.6 kmh NNE 5.0 mph8.0 kmh 30.12 in1020.0 mb 0.00 in0.0 mm 0.00 in/hr0.0 mm/hr 0.00 in0.0 mm
06:30 AM 23.9°F-4.5°C 16.2°F-8.8°C 72% 1.2 mph ENE1.9 kmh ENE 3.0 mph4.8 kmh 30.11 in1019.6 mb 0.00 in0.0 mm 0.00 in/hr0.0 mm/hr 0.00 in0.0 mm
06:20 AM 23.8°F-4.6°C 16.1°F-8.8°C 72% 0.2 mph NE0.3 kmh NE -- 30.11 in1019.6 mb 0.00 in0.0 mm 0.00 in/hr0.0 mm/hr 0.00 in0.0 mm
06:10 AM 23.6°F-4.7°C 16.2°F-8.8°C 73% 0.4 mph NE0.6 kmh NE 3.0 mph4.8 kmh 30.10 in1019.3 mb 0.00 in0.0 mm 0.00 in/hr0.0 mm/hr 0.00 in0.0 mm
06:00 AM 23.6°F-4.7°C 16.2°F-8.8°C 73% 1.3 mph NE2.1 kmh NE 5.0 mph8.0 kmh 30.10 in1019.3 mb 0.00 in0.0 mm 0.00 in/hr0.0 mm/hr 0.00 in0.0 mm
05:50 AM 23.6°F-4.7°C 15.9°F-8.9°C 72% Calm Calm -- 30.10 in1019.3 mb 0.00 in0.0 mm 0.00 in/hr0.0 mm/hr 0.00 in0.0 mm
05:40 AM 23.6°F-4.7°C 16.2°F-8.8°C 73% Calm Calm -- 30.09 in1019.0 mb 0.00 in0.0 mm 0.00 in/hr0.0 mm/hr 0.00 in0.0 mm
05:30 AM 23.6°F-4.7°C 15.9°F-8.9°C 72% Calm Calm -- 30.09 in1019.0 mb 0.00 in0.0 mm 0.00 in/hr0.0 mm/hr 0.00 in0.0 mm
05:20 AM 23.7°F-4.6°C 16.3°F-8.7°C 73% Calm Calm -- 30.09 in1019.0 mb 0.00 in0.0 mm 0.00 in/hr0.0 mm/hr 0.00 in0.0 mm
05:10 AM 23.8°F-4.6°C 16.1°F-8.8°C 72% Calm Calm -- 30.09 in1019.0 mb 0.00 in0.0 mm 0.00 in/hr0.0 mm/hr 0.00 in0.0 mm
05:00 AM 23.8°F-4.6°C 16.1°F-8.8°C 72% 0.1 mph E0.2 kmh E -- 30.09 in1019.0 mb 0.00 in0.0 mm 0.00 in/hr0.0 mm/hr 0.00 in0.0 mm
04:50 AM 23.8°F-4.6°C 16.1°F-8.8°C 72% Calm Calm -- 30.08 in1018.6 mb 0.00 in0.0 mm 0.00 in/hr0.0 mm/hr 0.00 in0.0 mm
04:40 AM 23.8°F-4.6°C 16.4°F-8.7°C 73% Calm Calm -- 30.08 in1018.6 mb 0.00 in0.0 mm 0.00 in/hr0.0 mm/hr 0.00 in0.0 mm
04:30 AM 23.8°F-4.6°C 16.4°F-8.7°C 73% Calm Calm -- 30.08 in1018.6 mb 0.00 in0.0 mm 0.00 in/hr0.0 mm/hr 0.00 in0.0 mm
04:20 AM 23.8°F-4.6°C 16.4°F-8.7°C 73% Calm Calm -- 30.08 in1018.6 mb 0.00 in0.0 mm 0.00 in/hr0.0 mm/hr 0.00 in0.0 mm
04:10 AM 23.9°F-4.5°C 16.5°F-8.6°C 73% 1.4 mph NE2.3 kmh NE 2.0 mph3.2 kmh 30.08 in1018.6 mb 0.00 in0.0 mm 0.00 in/hr0.0 mm/hr 0.00 in0.0 mm
04:00 AM 23.9°F-4.5°C 16.5°F-8.6°C 73% 0.4 mph ENE0.6 kmh ENE 3.0 mph4.8 kmh 30.08 in1018.6 mb 0.00 in0.0 mm 0.00 in/hr0.0 mm/hr 0.00 in0.0 mm
03:50 AM 23.9°F-4.5°C 16.8°F-8.4°C 74% Calm Calm -- 30.08 in1018.6 mb 0.00 in0.0 mm 0.00 in/hr0.0 mm/hr 0.00 in0.0 mm
03:40 AM 23.9°F-4.5°C 16.5°F-8.6°C 73% Calm Calm 1.0 mph1.6 kmh 30.07 in1018.3 mb 0.00 in0.0 mm 0.00 in/hr0.0 mm/hr 0.00 in0.0 mm
03:30 AM 23.9°F-4.5°C 16.5°F-8.6°C 73% 0.1 mph ENE0.2 kmh ENE 3.0 mph4.8 kmh 30.08 in1018.6 mb 0.00 in0.0 mm 0.00 in/hr0.0 mm/hr 0.00 in0.0 mm
03:20 AM 23.9°F-4.5°C 16.5°F-8.6°C 73% 0.3 mph ENE0.5 kmh ENE -- 30.08 in1018.6 mb 0.00 in0.0 mm 0.00 in/hr0.0 mm/hr 0.00 in0.0 mm
03:10 AM 23.9°F-4.5°C 16.5°F-8.6°C 73% 0.1 mph NE0.2 kmh NE 1.0 mph1.6 kmh 30.08 in1018.6 mb 0.00 in0.0 mm 0.00 in/hr0.0 mm/hr 0.00 in0.0 mm
03:00 AM 23.8°F-4.6°C 16.7°F-8.5°C 74% 1.0 mph ENE1.6 kmh ENE 1.0 mph1.6 kmh 30.08 in1018.6 mb 0.00 in0.0 mm 0.00 in/hr0.0 mm/hr 0.00 in0.0 mm
02:50 AM 23.7°F-4.6°C 16.3°F-8.7°C 73% Calm Calm -- 30.07 in1018.3 mb 0.00 in0.0 mm 0.00 in/hr0.0 mm/hr 0.00 in0.0 mm
02:40 AM 23.7°F-4.6°C 16.3°F-8.7°C 73% 0.1 mph ENE0.2 kmh ENE -- 30.07 in1018.3 mb 0.00 in0.0 mm 0.00 in/hr0.0 mm/hr 0.00 in0.0 mm
02:30 AM 23.8°F-4.6°C 16.4°F-8.7°C 73% Calm Calm -- 30.07 in1018.3 mb 0.00 in0.0 mm 0.00 in/hr0.0 mm/hr 0.00 in0.0 mm
02:20 AM 23.9°F-4.5°C 16.5°F-8.6°C 73% Calm Calm -- 30.07 in1018.3 mb 0.00 in0.0 mm 0.00 in/hr0.0 mm/hr 0.00 in0.0 mm
02:10 AM 24.0°F-4.4°C 16.6°F-8.6°C 73% Calm Calm -- 30.07 in1018.3 mb 0.00 in0.0 mm 0.00 in/hr0.0 mm/hr 0.00 in0.0 mm
02:00 AM 24.2°F-4.3°C 16.5°F-8.6°C 72% Calm Calm -- 30.07 in1018.3 mb 0.00 in0.0 mm 0.00 in/hr0.0 mm/hr 0.00 in0.0 mm
01:50 AM 24.4°F-4.2°C 16.7°F-8.5°C 72% Calm Calm -- 30.07 in1018.3 mb 0.00 in0.0 mm 0.00 in/hr0.0 mm/hr 0.00 in0.0 mm
01:40 AM 24.6°F-4.1°C 16.9°F-8.4°C 72% Calm Calm -- 30.06 in1017.9 mb 0.00 in0.0 mm 0.00 in/hr0.0 mm/hr 0.00 in0.0 mm
01:30 AM 24.7°F-4.1°C 16.7°F-8.5°C 71% Calm Calm -- 30.06 in1017.9 mb 0.00 in0.0 mm 0.00 in/hr0.0 mm/hr 0.00 in0.0 mm
01:20 AM 24.8°F-4.0°C 16.7°F-8.5°C 71% Calm Calm -- 30.06 in1017.9 mb 0.00 in0.0 mm 0.00 in/hr0.0 mm/hr 0.00 in0.0 mm
01:10 AM 24.9°F-3.9°C 16.8°F-8.4°C 71% Calm Calm -- 30.06 in1017.9 mb 0.00 in0.0 mm 0.00 in/hr0.0 mm/hr 0.00 in0.0 mm
01:00 AM 24.9°F-3.9°C 16.5°F-8.6°C 70% 0.2 mph E0.3 kmh E 1.0 mph1.6 kmh 30.06 in1017.9 mb 0.00 in0.0 mm 0.00 in/hr0.0 mm/hr 0.00 in0.0 mm
12:50 AM 25.0°F-3.9°C 16.9°F-8.4°C 71% Calm Calm -- 30.06 in1017.9 mb 0.00 in0.0 mm 0.00 in/hr0.0 mm/hr 0.00 in0.0 mm
12:40 AM 25.1°F-3.8°C 16.7°F-8.5°C 70% Calm Calm -- 30.06 in1017.9 mb 0.00 in0.0 mm 0.00 in/hr0.0 mm/hr 0.00 in0.0 mm
12:30 AM 25.1°F-3.8°C 17.0°F-8.3°C 71% Calm Calm -- 30.06 in1017.9 mb 0.00 in0.0 mm 0.00 in/hr0.0 mm/hr 0.00 in0.0 mm
12:20 AM 25.0°F-3.9°C 16.6°F-8.6°C 70% Calm Calm -- 30.07 in1018.3 mb 0.00 in0.0 mm 0.00 in/hr0.0 mm/hr 0.00 in0.0 mm
12:10 AM 25.1°F-3.8°C 16.7°F-8.5°C 70% Calm Calm -- 30.06 in1017.9 mb 0.00 in0.0 mm 0.00 in/hr0.0 mm/hr 0.00 in0.0 mm
12:00 AM 25.1°F-3.8°C 16.7°F-8.5°C 70% 0.7 mph ESE1.1 kmh ESE 2.0 mph3.2 kmh 30.06 in1017.9 mb 0.00 in0.0 mm 0.00 in/hr0.0 mm/hr 0.00 in0.0 mm